Time;durP1;ratioP1;P1;durP2;ratioP2;P2;SDS_P1;SDS_P2;PMS_P1;PMS_P2;Temp;Humidity;BMP_temperature;BMP_pressure;BME280_temperature;BME280_humidity;BME280_pressure;Samples;Min_cycle;Max_cycle;Signal;HPM_P1;HPM_P2
2024/03/20 00:00:54;;;;;;;6.00;5.50;;;;;;;10.08;53.32;101660.48;110468;1257;22251;-58
2024/03/20 00:03:21;;;;;;;6.10;5.60;;;;;;;10.05;53.55;101659.79;110325;1256;22259;-58
2024/03/20 00:05:49;;;;;;;6.80;6.10;;;;;;;10.01;53.67;101654.09;110458;1259;22358;-59
2024/03/20 00:08:16;;;;;;;6.70;6.10;;;;;;;9.98;53.86;101651.15;110478;1257;23270;-59
2024/03/20 00:10:45;;;;;;;6.80;6.10;;;;;;;9.98;53.90;101651.00;110401;1276;22284;-58
2024/03/20 00:13:13;;;;;;;6.50;5.80;;;;;;;9.97;53.90;101648.05;109372;1259;1003186;-58
2024/03/20 00:15:40;;;;;;;6.20;5.60;;;;;;;9.94;53.98;101652.58;110450;1276;22379;-58
2024/03/20 00:18:08;;;;;;;6.20;5.60;;;;;;;9.93;54.02;101655.88;110509;1254;22373;-58
2024/03/20 00:20:36;;;;;;;6.30;5.70;;;;;;;9.91;53.98;101653.80;110423;1257;22125;-58
2024/03/20 00:23:03;;;;;;;6.50;5.90;;;;;;;9.86;54.02;101657.98;110475;1254;22306;-59
2024/03/20 00:25:31;;;;;;;6.60;5.90;;;;;;;9.84;54.16;101659.03;110446;1259;22293;-59
2024/03/20 00:27:58;;;;;;;6.60;6.10;;;;;;;9.81;54.34;101657.66;110406;1259;22368;-59
2024/03/20 00:30:26;;;;;;;7.30;6.50;;;;;;;9.83;54.52;101659.73;110460;1269;22270;-59
2024/03/20 00:32:53;;;;;;;7.30;6.60;;;;;;;9.88;54.50;101659.88;109655;1257;1002483;-58
2024/03/20 00:35:20;;;;;;;7.20;6.50;;;;;;;9.85;54.19;101656.42;110417;1259;22987;-59
2024/03/20 00:37:48;;;;;;;6.50;5.90;;;;;;;9.83;54.45;101660.94;110542;1257;22417;-59
2024/03/20 00:40:15;;;;;;;6.10;5.60;;;;;;;9.85;54.48;101657.81;110300;1259;22935;-59
2024/03/20 00:42:44;;;;;;;5.90;5.40;;;;;;;9.88;54.41;101657.27;110457;1257;22966;-58
2024/03/20 00:45:12;;;;;;;5.70;4.70;;;;;;;9.85;54.12;101659.20;109425;1261;1002108;-58
2024/03/20 00:47:39;;;;;;;5.90;5.30;;;;;;;9.82;54.21;101658.70;110429;1259;22311;-58
2024/03/20 00:50:07;;;;;;;5.60;5.10;;;;;;;9.82;54.33;101654.02;109681;1259;1002550;-59
2024/03/20 00:52:34;;;;;;;6.10;5.60;;;;;;;9.83;54.23;101653.84;110209;1270;22339;-59
2024/03/20 00:55:14;;;;;;;6.60;5.90;;;;;;;9.83;54.26;101654.70;110435;1259;22305;-58
2024/03/20 00:57:43;;;;;;;6.80;6.20;;;;;;;9.84;54.25;101650.71;110175;1257;22442;-59
2024/03/20 01:00:11;;;;;;;5.70;5.00;;;;;;;9.88;54.39;101651.91;109606;1263;1002306;-58
2024/03/20 01:02:38;;;;;;;6.50;5.90;;;;;;;9.94;54.34;101652.92;110548;1258;22211;-58
2024/03/20 01:05:06;;;;;;;6.40;5.80;;;;;;;9.97;54.24;101645.98;109757;1258;1002519;-58
2024/03/20 01:07:33;;;;;;;7.10;6.40;;;;;;;10.01;54.24;101645.25;110522;1258;23100;-58
2024/03/20 01:10:01;;;;;;;8.30;7.50;;;;;;;10.00;53.88;101645.43;110482;1257;22912;-59
2024/03/20 01:12:28;;;;;;;7.70;7.00;;;;;;;9.92;53.82;101645.48;110433;1256;22116;-58
2024/03/20 01:14:56;;;;;;;7.10;6.40;;;;;;;9.83;53.91;101643.95;110279;1259;22906;-58
2024/03/20 01:17:23;;;;;;;8.20;7.50;;;;;;;9.80;54.19;101642.41;110447;1253;22364;-58
2024/03/20 01:19:51;;;;;;;7.30;6.70;;;;;;;9.80;54.36;101643.11;110517;1253;22309;-58
2024/03/20 01:22:18;;;;;;;7.80;7.10;;;;;;;9.83;54.39;101641.02;110033;1263;22625;-59
2024/03/20 01:24:46;;;;;;;8.10;7.30;;;;;;;9.87;54.51;101642.20;109763;1257;1003042;-59
2024/03/20 01:27:13;;;;;;;8.30;7.50;;;;;;;9.88;54.43;101643.24;110449;1256;22426;-59
2024/03/20 01:29:40;;;;;;;8.60;7.80;;;;;;;9.87;54.53;101635.96;110245;1259;23058;-59
2024/03/20 01:32:08;;;;;;;9.00;8.10;;;;;;;9.89;54.68;101637.00;110326;1259;22367;-58
2024/03/20 01:34:35;;;;;;;8.50;7.70;;;;;;;9.95;54.67;101639.05;109675;1259;1002661;-59
2024/03/20 01:37:03;;;;;;;9.90;8.90;;;;;;;9.95;54.48;101632.46;110548;1260;22291;-59
2024/03/20 01:39:31;;;;;;;9.20;8.30;;;;;;;9.93;54.51;101632.13;110479;1259;22990;-59
2024/03/20 01:41:58;;;;;;;9.10;8.20;;;;;;;9.92;54.56;101629.35;109683;1259;1002122;-59
2024/03/20 01:44:26;;;;;;;11.30;10.10;;;;;;;9.93;54.60;101628.48;110431;1259;22287;-58
2024/03/20 01:46:54;;;;;;;10.80;9.70;;;;;;;9.96;54.67;101625.86;110616;1256;22423;-58
2024/03/20 01:49:21;;;;;;;13.30;10.90;;;;;;;10.00;54.41;101622.05;109754;1259;1006412;-59
2024/03/20 01:51:48;;;;;;;12.70;11.40;;;;;;;10.00;54.50;101618.05;110148;1275;22106;-58
2024/03/20 01:54:16;;;;;;;13.90;11.30;;;;;;;9.97;54.44;101620.14;110520;1258;23092;-59
2024/03/20 01:56:44;;;;;;;13.40;12.00;;;;;;;9.96;54.53;101623.09;110426;1269;22285;-59
2024/03/20 01:59:11;;;;;;;12.60;10.00;;;;;;;9.95;54.47;101628.83;110335;1259;22419;-58
2024/03/20 02:01:39;;;;;;;13.00;10.90;;;;;;;9.95;54.41;101631.26;110462;1261;22106;-59
2024/03/20 02:04:06;;;;;;;12.50;10.80;;;;;;;9.93;54.53;101629.02;110446;1259;23154;-58
2024/03/20 02:06:34;;;;;;;12.10;10.40;;;;;;;9.88;54.48;101631.46;110158;1261;22131;-59
2024/03/20 02:09:03;;;;;;;11.30;10.10;;;;;;;9.84;54.69;101632.34;110410;1259;22133;-59
2024/03/20 02:11:31;;;;;;;12.50;10.50;;;;;;;9.82;54.66;101633.91;109789;1258;1002609;-59
2024/03/20 02:13:58;;;;;;;11.40;10.20;;;;;;;9.83;54.83;101631.30;110271;1259;22338;-59
2024/03/20 02:16:26;;;;;;;11.70;9.50;;;;;;;9.83;54.95;101632.34;110495;1258;22140;-58
2024/03/20 02:18:54;;;;;;;9.80;8.80;;;;;;;9.83;54.84;101633.56;110449;1259;22763;-59
2024/03/20 02:21:22;;;;;;;10.40;8.80;;;;;;;9.81;55.02;101633.58;110528;1256;22137;-60
2024/03/20 02:23:50;;;;;;;10.60;9.50;;;;;;;9.80;55.06;101636.52;110532;1269;22157;-58
2024/03/20 02:26:17;;;;;;;10.60;9.50;;;;;;;9.79;55.08;101633.07;109739;1258;1002230;-59
2024/03/20 02:28:45;;;;;;;11.10;9.60;;;;;;;9.81;55.44;101630.63;110558;1266;22364;-59
2024/03/20 02:31:13;;;;;;;9.90;8.80;;;;;;;9.85;55.27;101630.96;110426;1259;22133;-59
2024/03/20 02:33:41;;;;;;;8.80;7.80;;;;;;;9.84;54.99;101627.84;110442;1256;22313;-59
2024/03/20 02:36:08;;;;;;;10.40;9.30;;;;;;;9.81;55.07;101629.24;110410;1276;22125;-58
2024/03/20 02:38:39;;;;;;;10.40;9.00;;;;;;;9.82;55.21;101629.92;110270;1259;22129;-59
2024/03/20 02:41:06;;;;;;;9.60;8.60;;;;;;;9.82;55.20;101630.45;110248;1260;22468;-59
2024/03/20 02:43:34;;;;;;;9.80;8.70;;;;;;;9.88;55.13;101630.94;110469;1259;22912;-59
2024/03/20 02:46:02;;;;;;;10.90;9.30;;;;;;;9.96;55.08;101631.77;109701;1259;1002966;-58
2024/03/20 02:48:29;;;;;;;9.10;8.00;;;;;;;10.04;54.93;101633.98;110530;1253;22747;-58
2024/03/20 02:50:57;;;;;;;10.90;9.80;;;;;;;10.07;54.56;101634.30;110604;1256;22128;-59
2024/03/20 02:53:24;;;;;;;9.30;8.30;;;;;;;10.07;54.26;101633.60;110195;1260;22478;-59
2024/03/20 02:55:52;;;;;;;9.20;8.20;;;;;;;10.09;54.33;101625.11;110408;1261;22816;-59
2024/03/20 02:58:19;;;;;;;9.30;8.40;;;;;;;10.11;53.76;101628.59;110475;1259;22225;-60
2024/03/20 03:00:46;;;;;;;9.30;8.40;;;;;;;10.04;53.71;101626.86;109704;1259;1003027;-59
2024/03/20 03:03:14;;;;;;;8.90;8.00;;;;;;;9.98;53.43;101629.66;110541;1259;22470;-59
2024/03/20 03:05:41;;;;;;;9.00;7.90;;;;;;;9.92;53.43;101633.52;110558;1259;22163;-59
2024/03/20 03:08:09;;;;;;;8.90;7.70;;;;;;;9.88;53.65;101634.23;110545;1261;22292;-59
2024/03/20 03:10:36;;;;;;;8.10;7.30;;;;;;;9.86;53.53;101636.33;109721;1258;1002271;-58
2024/03/20 03:13:04;;;;;;;7.70;6.80;;;;;;;9.83;53.58;101631.98;110473;1258;22803;-59
2024/03/20 03:15:31;;;;;;;7.50;6.80;;;;;;;9.85;53.68;101635.80;109886;1276;369436;-59
2024/03/20 03:17:59;;;;;;;7.90;7.10;;;;;;;9.82;53.54;101637.02;109793;1258;1002931;-58
2024/03/20 03:20:27;;;;;;;7.80;6.60;;;;;;;9.80;53.57;101636.00;110459;1258;22295;-59
2024/03/20 03:22:54;;;;;;;9.40;7.50;;;;;;;9.80;53.78;101638.61;110511;1258;22254;-59
2024/03/20 03:25:22;;;;;;;7.90;7.10;;;;;;;9.81;53.79;101638.77;109692;1259;1002287;-59
2024/03/20 03:27:50;;;;;;;8.60;7.30;;;;;;;9.85;53.69;101641.53;110213;1262;22971;-58
2024/03/20 03:30:17;;;;;;;8.30;7.50;;;;;;;9.90;53.64;101645.14;109695;1257;1002172;-59
2024/03/20 03:32:45;;;;;;;7.40;6.70;;;;;;;9.98;53.70;101649.95;110425;1259;22408;-59
2024/03/20 03:35:13;;;;;;;8.70;7.70;;;;;;;10.04;53.56;101650.79;110142;1260;22310;-59
2024/03/20 03:37:40;;;;;;;9.10;8.20;;;;;;;10.10;53.43;101651.81;110429;1276;22411;-59
2024/03/20 03:40:10;;;;;;;8.30;7.50;;;;;;;10.15;53.28;101652.49;110533;1257;22285;-59
2024/03/20 03:42:39;;;;;;;8.30;7.40;;;;;;;10.20;53.23;101647.61;110337;1259;22278;-59
2024/03/20 03:45:06;;;;;;;8.70;7.80;;;;;;;10.24;53.06;101647.58;109682;1258;1003290;-59
2024/03/20 03:47:34;;;;;;;8.00;7.20;;;;;;;10.27;52.89;101644.98;110233;1260;22140;-59
2024/03/20 03:50:03;;;;;;;8.80;7.60;;;;;;;10.29;52.75;101647.89;110442;1259;23043;-59
2024/03/20 03:52:31;;;;;;;8.00;6.70;;;;;;;10.31;52.54;101647.37;110532;1259;22344;-59
2024/03/20 03:54:58;;;;;;;8.60;7.50;;;;;;;10.28;52.13;101652.59;110427;1257;22781;-59
2024/03/20 03:57:26;;;;;;;7.70;7.00;;;;;;;10.20;52.13;101650.73;110455;1258;22516;-59
2024/03/20 03:59:53;;;;;;;9.00;8.10;;;;;;;10.11;52.17;101647.64;110488;1258;22805;-59
2024/03/20 04:02:21;;;;;;;8.20;7.40;;;;;;;10.02;52.40;101646.98;109783;1259;1006642;-59
2024/03/20 04:04:49;;;;;;;8.10;7.30;;;;;;;9.94;52.45;101646.85;109777;1259;1002176;-59
2024/03/20 04:07:17;;;;;;;7.60;6.80;;;;;;;9.82;52.63;101647.60;109784;1258;1002367;-59
2024/03/20 04:09:45;;;;;;;6.50;5.90;;;;;;;9.76;52.84;101646.77;110327;1259;22732;-59
2024/03/20 04:12:12;;;;;;;6.70;6.10;;;;;;;9.71;52.96;101648.70;110469;1257;22948;-59
2024/03/20 04:14:40;;;;;;;7.00;6.30;;;;;;;9.61;53.09;101656.88;110514;1258;22350;-59
2024/03/20 04:17:07;;;;;;;6.30;5.70;;;;;;;9.50;53.27;101657.07;110449;1258;22358;-59
2024/03/20 04:19:34;;;;;;;5.10;4.60;;;;;;;9.40;53.31;101658.84;110503;1253;22140;-59
2024/03/20 04:22:02;;;;;;;6.50;5.90;;;;;;;9.29;53.42;101665.45;109781;1257;1002858;-59
2024/03/20 04:24:30;;;;;;;6.50;5.90;;;;;;;9.17;53.70;101669.80;110544;1276;23051;-59
2024/03/20 04:26:57;;;;;;;7.60;6.60;;;;;;;9.15;54.39;101668.41;109726;1259;1002443;-59
2024/03/20 04:29:25;;;;;;;7.30;6.30;;;;;;;9.22;54.44;101665.29;110512;1259;22136;-59
2024/03/20 04:31:53;;;;;;;7.00;6.30;;;;;;;9.29;54.50;101661.99;110409;1260;22140;-59
2024/03/20 04:34:20;;;;;;;8.50;7.70;;;;;;;9.36;54.39;101659.54;109761;1259;1003159;-59
2024/03/20 04:36:48;;;;;;;7.30;6.60;;;;;;;9.35;54.10;101663.53;110247;1265;23014;-59
2024/03/20 04:39:17;;;;;;;8.30;7.50;;;;;;;9.28;54.13;101669.27;109724;1259;1002089;-59
2024/03/20 04:41:45;;;;;;;8.20;7.40;;;;;;;9.26;54.39;101670.66;110442;1259;22997;-59
2024/03/20 04:44:13;;;;;;;8.90;8.00;;;;;;;9.30;54.59;101672.73;110165;1262;22326;-59
2024/03/20 04:46:40;;;;;;;8.40;7.50;;;;;;;9.37;54.40;101672.02;110502;1259;22435;-59
2024/03/20 04:49:08;;;;;;;9.60;8.70;;;;;;;9.42;54.34;101670.95;110517;1272;22407;-58
2024/03/20 04:51:35;;;;;;;10.90;9.00;;;;;;;9.47;54.34;101673.73;110493;1259;22175;-59
2024/03/20 04:54:03;;;;;;;8.70;7.80;;;;;;;9.51;54.19;101671.97;109693;1259;1003371;-59
2024/03/20 04:56:30;;;;;;;9.40;8.40;;;;;;;9.55;54.09;101675.25;110280;1259;23294;-59
2024/03/20 04:58:58;;;;;;;8.90;8.00;;;;;;;9.55;53.81;101668.33;110504;1256;22155;-59
2024/03/20 05:01:25;;;;;;;7.80;7.00;;;;;;;9.53;53.95;101670.23;110442;1254;22119;-58
2024/03/20 05:03:52;;;;;;;7.00;6.40;;;;;;;9.54;53.75;101673.69;109521;1259;1002507;-59
2024/03/20 05:06:20;;;;;;;6.80;6.10;;;;;;;9.50;53.57;101672.48;110532;1257;23185;-59
2024/03/20 05:08:47;;;;;;;7.10;6.50;;;;;;;9.48;53.53;101669.73;110300;1260;22144;-58
2024/03/20 05:11:14;;;;;;;6.80;6.20;;;;;;;9.48;53.52;101673.55;110494;1256;22233;-59
2024/03/20 05:13:42;;;;;;;6.50;5.90;;;;;;;9.49;53.54;101667.30;110104;1269;22409;-58
2024/03/20 05:16:09;;;;;;;5.90;5.30;;;;;;;9.51;53.52;101667.81;110457;1260;22777;-59
2024/03/20 05:18:37;;;;;;;6.50;5.90;;;;;;;9.56;53.58;101664.69;110463;1259;23038;-59
2024/03/20 05:21:04;;;;;;;6.30;5.70;;;;;;;9.60;53.62;101667.61;109432;1273;1002269;-60
2024/03/20 05:23:32;;;;;;;6.40;5.80;;;;;;;9.64;53.41;101669.14;110486;1258;22446;-59
2024/03/20 05:26:00;;;;;;;6.60;6.00;;;;;;;9.64;53.41;101669.67;110158;1275;22972;-59
2024/03/20 05:28:27;;;;;;;6.70;6.10;;;;;;;9.63;53.32;101672.80;110287;1259;22121;-59
2024/03/20 05:30:55;;;;;;;6.90;6.30;;;;;;;9.65;53.49;101672.98;110509;1258;23082;-59
2024/03/20 05:33:22;;;;;;;6.70;6.10;;;;;;;9.73;53.48;101675.38;109694;1259;1002267;-59
2024/03/20 05:35:50;;;;;;;6.50;5.90;;;;;;;9.82;53.35;101676.88;110236;1269;22767;-59
2024/03/20 05:38:17;;;;;;;5.90;5.40;;;;;;;9.90;53.05;101677.89;110513;1257;22412;-59
2024/03/20 05:40:45;;;;;;;5.50;5.00;;;;;;;9.94;52.99;101681.69;110402;1259;23131;-60
2024/03/20 05:43:13;;;;;;;5.50;5.00;;;;;;;9.94;52.72;101684.98;110532;1256;22138;-59
2024/03/20 05:45:40;;;;;;;5.60;5.10;;;;;;;9.90;52.45;101689.67;110509;1259;22118;-59
2024/03/20 05:48:07;;;;;;;6.40;5.70;;;;;;;9.83;52.80;101693.70;109615;1260;1002465;-59
2024/03/20 05:50:35;;;;;;;7.40;6.80;;;;;;;9.80;52.85;101696.48;110511;1260;22154;-59
2024/03/20 05:53:03;;;;;;;6.10;5.60;;;;;;;9.78;53.13;101702.38;110449;1260;22456;-57
2024/03/20 05:55:30;;;;;;;5.20;4.80;;;;;;;9.77;53.14;101706.02;109492;1257;1003095;-56
2024/03/20 05:57:58;;;;;;;5.00;4.60;;;;;;;9.77;53.07;101704.98;110467;1259;22191;-57
2024/03/20 06:00:26;;;;;;;4.70;4.30;;;;;;;9.79;53.06;101709.30;110549;1257;22265;-57
2024/03/20 06:02:54;;;;;;;4.70;4.30;;;;;;;9.78;53.10;101703.77;110517;1262;22287;-59
2024/03/20 06:05:21;;;;;;;4.80;4.40;;;;;;;9.80;53.07;101706.71;110243;1276;22459;-57
2024/03/20 06:07:50;;;;;;;6.80;6.20;;;;;;;9.82;53.04;101709.64;110523;1259;22138;-57
2024/03/20 06:10:18;;;;;;;7.30;6.60;;;;;;;9.83;53.12;101712.92;110441;1269;22801;-58
2024/03/20 06:12:45;;;;;;;7.70;7.00;;;;;;;9.82;53.37;101721.94;110543;1260;23014;-57
2024/03/20 06:15:13;;;;;;;6.90;5.90;;;;;;;9.78;53.34;101724.73;110432;1260;22139;-58
2024/03/20 06:17:40;;;;;;;6.30;5.70;;;;;;;9.71;53.08;101720.77;109745;1269;1002949;-58
2024/03/20 06:20:08;;;;;;;6.00;5.40;;;;;;;9.70;53.25;101718.52;110516;1260;22296;-58
2024/03/20 06:22:36;;;;;;;6.90;6.20;;;;;;;9.70;53.36;101720.08;109536;1260;1002644;-58
2024/03/20 06:25:07;;;;;;;6.70;6.00;;;;;;;9.74;53.58;101723.17;109730;1259;1002373;-58
2024/03/20 06:27:34;;;;;;;6.20;5.60;;;;;;;9.82;53.39;101731.48;110153;1262;22297;-57
2024/03/20 06:30:04;;;;;;;5.70;5.20;;;;;;;9.82;53.04;101731.47;110477;1264;22154;-58
2024/03/20 06:32:33;;;;;;;4.70;4.30;;;;;;;9.82;53.16;101735.98;109701;1257;1002529;-58
2024/03/20 06:35:03;;;;;;;4.70;4.30;;;;;;;9.82;52.88;101736.84;110452;1258;23178;-58
2024/03/20 06:37:30;;;;;;;4.50;4.10;;;;;;;9.86;53.00;101736.66;110471;1259;22994;-59
2024/03/20 06:39:58;;;;;;;4.60;4.20;;;;;;;9.93;53.01;101737.85;110435;1260;22792;-59
2024/03/20 06:42:26;;;;;;;4.70;4.30;;;;;;;10.02;52.72;101736.60;110507;1267;22881;-59
2024/03/20 06:44:54;;;;;;;5.30;4.80;;;;;;;10.13;52.68;101737.98;110506;1257;22311;-59
2024/03/20 06:47:24;;;;;;;4.80;4.40;;;;;;;10.20;52.36;101735.70;110432;1260;22427;-59
2024/03/20 06:49:51;;;;;;;5.20;4.70;;;;;;;10.24;52.01;101734.63;110446;1260;22444;-59
2024/03/20 06:52:21;;;;;;;4.40;4.00;;;;;;;10.24;51.71;101743.48;110483;1260;22134;-58
2024/03/20 06:54:52;;;;;;;4.80;4.40;;;;;;;10.29;51.97;101739.47;109713;1273;1002617;-59
2024/03/20 06:57:20;;;;;;;5.50;4.80;;;;;;;10.37;51.82;101743.24;110518;1259;22097;-58
2024/03/20 06:59:48;;;;;;;4.80;4.40;;;;;;;10.48;51.64;101740.41;110224;1276;22754;-58
2024/03/20 07:02:15;;;;;;;5.10;4.60;;;;;;;10.57;51.44;101742.27;110313;1276;23060;-59
2024/03/20 07:04:43;;;;;;;4.70;4.30;;;;;;;10.64;51.30;101742.73;109739;1259;1002910;-59
2024/03/20 07:07:11;;;;;;;5.80;4.80;;;;;;;10.73;51.14;101742.50;110426;1270;22920;-58
2024/03/20 07:09:39;;;;;;;4.70;4.30;;;;;;;10.80;50.52;101743.66;110558;1269;22135;-59
2024/03/20 07:12:06;;;;;;;5.80;4.10;;;;;;;10.81;50.30;101744.87;110449;1276;22325;-58
2024/03/20 07:14:34;;;;;;;5.70;4.90;;;;;;;10.85;50.35;101745.35;110542;1256;22317;-58
2024/03/20 07:17:02;;;;;;;4.60;4.10;;;;;;;10.93;50.26;101742.02;110460;1257;22505;-58
2024/03/20 07:19:30;;;;;;;4.50;4.10;;;;;;;11.00;50.02;101741.44;110453;1258;22112;-58
2024/03/20 07:21:57;;;;;;;4.10;3.60;;;;;;;11.07;49.71;101742.95;109707;1276;1003062;-58
2024/03/20 07:24:25;;;;;;;3.90;3.60;;;;;;;11.14;49.49;101750.35;110504;1269;22136;-58
2024/03/20 07:26:52;;;;;;;4.60;4.10;;;;;;;11.20;49.19;101752.38;109409;1270;1002413;-59
2024/03/20 07:29:20;;;;;;;3.40;3.10;;;;;;;11.23;49.04;101753.23;110411;1270;22402;-59
2024/03/20 07:31:47;;;;;;;4.20;3.20;;;;;;;11.23;48.77;101755.14;110391;1276;22120;-58
2024/03/20 07:34:16;;;;;;;4.00;3.50;;;;;;;11.19;48.44;101754.65;110422;1270;22121;-57
2024/03/20 07:36:43;;;;;;;3.60;3.30;;;;;;;11.16;48.53;101751.73;110436;1269;22146;-57
2024/03/20 07:39:11;;;;;;;3.40;3.10;;;;;;;11.17;48.61;101748.77;110493;1269;23037;-57
2024/03/20 07:41:39;;;;;;;3.40;3.10;;;;;;;11.20;48.57;101754.99;110456;1270;22132;-57
2024/03/20 07:44:06;;;;;;;4.00;3.70;;;;;;;11.20;48.66;101755.33;110418;1276;22130;-57
2024/03/20 07:46:34;;;;;;;3.80;3.50;;;;;;;11.25;48.60;101752.16;110423;1270;22126;-58
2024/03/20 07:49:02;;;;;;;3.80;3.30;;;;;;;11.31;48.49;101757.15;110473;1269;22430;-58
2024/03/20 07:51:30;;;;;;;3.90;3.60;;;;;;;11.36;48.32;101753.62;110385;1276;22354;-58
2024/03/20 07:53:57;;;;;;;4.50;3.80;;;;;;;11.42;48.16;101753.92;110520;1269;23246;-58
2024/03/20 07:56:25;;;;;;;3.60;3.30;;;;;;;11.50;48.16;101749.69;109678;1276;1003005;-57
2024/03/20 07:58:52;;;;;;;3.80;3.40;;;;;;;11.57;47.83;101749.61;110436;1271;23105;-58
2024/03/20 08:01:20;;;;;;;4.50;3.80;;;;;;;11.64;47.62;101746.77;110483;1269;22437;-58
2024/03/20 08:03:49;;;;;;;4.00;3.60;;;;;;;11.73;47.66;101747.38;110493;1270;22854;-58
2024/03/20 08:06:17;;;;;;;3.60;3.30;;;;;;;11.82;47.56;101746.23;110374;1269;22945;-59
2024/03/20 08:08:44;;;;;;;4.10;3.60;;;;;;;11.90;47.39;101745.11;110200;1276;22283;-58
2024/03/20 08:11:12;;;;;;;3.50;3.20;;;;;;;11.97;47.30;101743.98;109636;1270;1002456;-59
2024/03/20 08:13:40;;;;;;;3.70;3.30;;;;;;;12.03;47.20;101743.75;110452;1273;22179;-58
2024/03/20 08:16:08;;;;;;;3.90;3.50;;;;;;;12.07;47.01;101742.65;110426;1270;22886;-57
2024/03/20 08:18:35;;;;;;;3.60;3.30;;;;;;;12.11;46.79;101740.50;110401;1276;22127;-58
2024/03/20 08:21:03;;;;;;;3.70;3.40;;;;;;;12.18;46.55;101738.67;110401;1270;22433;-58
2024/03/20 08:23:31;;;;;;;3.10;2.80;;;;;;;12.22;46.41;101733.41;110165;1269;22155;-58
2024/03/20 08:25:58;;;;;;;4.10;3.10;;;;;;;12.28;46.18;101728.82;110203;1269;22450;-58
2024/03/20 08:28:26;;;;;;;3.90;3.50;;;;;;;12.35;46.18;101729.58;110449;1276;22109;-59
2024/03/20 08:30:53;;;;;;;3.80;3.50;;;;;;;12.45;46.25;101730.66;110521;1276;22126;-58
2024/03/20 08:33:22;;;;;;;3.40;3.10;;;;;;;12.55;46.02;101734.16;110457;1270;22371;-58
2024/03/20 08:35:57;;;;;;;3.60;3.30;;;;;;;12.64;45.73;101732.47;110396;1274;22124;-58
2024/03/20 08:38:28;;;;;;;3.20;2.90;;;;;;;12.73;45.45;101734.25;110134;1276;22881;-59
2024/03/20 08:40:56;;;;;;;2.70;2.50;;;;;;;12.84;45.36;101730.42;110380;1276;22353;-59
2024/03/20 08:43:23;;;;;;;3.10;2.80;;;;;;;12.90;44.67;101729.30;110260;1269;22390;-58
2024/03/20 08:45:52;;;;;;;2.80;2.60;;;;;;;12.97;44.61;101723.42;110493;1269;22439;-58
2024/03/20 13:58:58;;;;;;;2.90;2.70;;;;;;;9.08;59.48;101703.86;104960;1280;557971;-57
2024/03/20 14:01:27;;;;;;;3.30;3.00;;;;;;;10.93;53.49;101697.38;106264;1282;25408;-57
2024/03/20 14:03:54;;;;;;;3.00;2.70;;;;;;;11.24;52.36;101700.41;105944;1285;25341;-57
2024/03/20 14:06:23;;;;;;;2.70;2.50;;;;;;;11.43;51.52;101697.97;106257;1280;25441;-57
2024/03/20 14:08:50;;;;;;;2.70;2.50;;;;;;;11.57;50.63;101698.36;105688;1280;1002542;-57
2024/03/20 14:11:17;;;;;;;2.80;2.60;;;;;;;11.63;49.59;101701.76;106118;1280;242945;-57
2024/03/20 14:13:45;;;;;;;2.40;2.20;;;;;;;11.67;49.50;101696.86;106291;1282;22641;-57
2024/03/20 14:16:13;;;;;;;3.30;2.80;;;;;;;11.72;49.20;101694.73;106328;1278;25374;-57
2024/03/20 14:18:41;;;;;;;2.60;2.40;;;;;;;11.77;48.72;101697.98;106327;1277;22533;-57
2024/03/20 14:21:12;;;;;;;2.60;2.40;;;;;;;11.80;48.67;101700.55;106315;1278;25401;-58
2024/03/20 14:23:44;;;;;;;2.50;2.30;;;;;;;11.86;48.14;101698.57;106435;1277;22547;-58
2024/03/20 14:26:16;;;;;;;3.20;2.20;;;;;;;11.89;47.69;101696.63;106314;1282;24256;-58
2024/03/20 14:28:43;;;;;;;2.90;2.70;;;;;;;11.89;47.35;101698.02;106355;1278;25287;-57
2024/03/20 14:31:15;;;;;;;2.50;2.30;;;;;;;11.89;47.30;101696.98;106354;1278;25507;-57
2024/03/20 14:33:45;;;;;;;2.60;2.40;;;;;;;11.90;47.21;101693.30;106299;1279;24199;-57
2024/03/20 14:36:21;;;;;;;2.80;2.50;;;;;;;11.89;46.77;101690.70;106408;1277;25424;-57
2024/03/20 14:38:48;;;;;;;2.20;2.10;;;;;;;11.86;46.76;101692.14;106288;1278;23475;-58
2024/03/20 14:41:19;;;;;;;2.40;2.20;;;;;;;11.84;46.89;101694.59;105974;1285;25366;-58
2024/03/20 14:43:50;;;;;;;2.40;2.20;;;;;;;11.84;46.92;101699.98;106315;1281;25509;-57
2024/03/20 14:46:20;;;;;;;3.00;2.70;;;;;;;11.80;47.17;101700.73;105710;1279;1002879;-57
2024/03/20 14:48:48;;;;;;;2.80;2.60;;;;;;;11.82;47.35;101701.05;106316;1279;25385;-57
2024/03/20 14:51:20;;;;;;;3.80;3.50;;;;;;;11.90;47.44;101701.47;106330;1279;25600;-57
2024/03/20 14:53:47;;;;;;;;;;;;;;;11.97;47.72;101700.35;105980;1282;24219;-57
2024/03/20 14:56:15;;;;;;;3.70;3.40;;;;;;;11.98;47.92;101702.42;106047;1278;23492;-58
2024/03/20 14:58:43;;;;;;;5.00;4.50;;;;;;;12.04;48.11;101704.92;106262;1282;22531;-56
2024/03/20 15:01:16;;;;;;;4.00;3.60;;;;;;;12.11;48.10;101710.23;106301;1278;25353;-57
2024/03/20 15:03:44;;;;;;;6.40;5.60;;;;;;;12.18;47.81;101711.37;106342;1279;22534;-57
2024/03/20 15:06:19;;;;;;;6.50;5.30;;;;;;;12.25;47.65;101711.98;105593;1279;1002860;-57
2024/03/20 15:08:46;;;;;;;8.20;5.40;;;;;;;12.32;47.73;101717.09;106300;1279;22544;-57
2024/03/20 15:11:15;;;;;;;4.40;3.80;;;;;;;12.37;47.61;101716.15;106338;1278;25347;-57
2024/03/20 15:13:42;;;;;;;4.20;3.80;;;;;;;12.56;47.26;101719.71;106362;1279;24251;-58
2024/03/20 15:16:13;;;;;;;3.50;3.20;;;;;;;12.65;46.92;101723.23;106389;1278;22657;-57
2024/03/20 15:18:41;;;;;;;3.50;3.20;;;;;;;12.71;46.70;101720.52;106344;1278;23923;-58
2024/03/20 15:21:15;;;;;;;6.20;3.20;;;;;;;12.74;46.42;101723.62;106357;1282;22560;-58
2024/03/20 15:23:48;;;;;;;2.90;2.70;;;;;;;12.76;46.33;101727.24;106349;1279;22536;-57
2024/03/20 15:26:15;;;;;;;3.20;2.90;;;;;;;12.77;46.49;101729.15;106091;1280;25429;-57
2024/03/20 15:28:43;;;;;;;3.60;3.30;;;;;;;12.80;46.43;101731.20;106323;1279;25424;-57
2024/03/20 15:31:17;;;;;;;3.00;2.80;;;;;;;12.82;46.58;101733.77;106364;1279;25408;-57
2024/03/20 15:33:47;;;;;;;3.10;2.90;;;;;;;12.80;46.53;101735.88;105659;1279;1003624;-57
2024/03/20 15:36:15;;;;;;;5.80;4.70;;;;;;;12.77;46.97;101738.71;106378;1278;22663;-57
2024/03/20 15:38:49;;;;;;;5.00;4.50;;;;;;;12.66;47.78;101739.92;106158;1282;25479;-57
2024/03/20 15:41:20;;;;;;;5.90;5.40;;;;;;;12.51;48.34;101741.20;106294;1279;25384;-57
2024/03/20 15:43:48;;;;;;;5.40;4.90;;;;;;;12.35;48.92;101737.94;105667;1278;1002963;-58
2024/03/20 15:46:15;;;;;;;6.40;5.30;;;;;;;12.22;49.23;101743.32;106355;1279;24447;-58
2024/03/20 15:48:44;;;;;;;5.70;5.20;;;;;;;12.08;49.65;101746.98;105653;1279;1003502;-59
2024/03/20 15:51:14;;;;;;;5.80;5.30;;;;;;;11.95;50.29;101750.61;106392;1278;25452;-58
2024/03/20 15:53:42;;;;;;;6.40;5.80;;;;;;;11.86;50.91;101752.80;106461;1279;22537;-58
2024/03/20 15:56:09;;;;;;;6.30;5.80;;;;;;;11.76;51.21;101755.17;106316;1282;23913;-58
2024/03/20 15:58:36;;;;;;;6.70;6.10;;;;;;;11.64;51.61;101762.77;106342;1278;25462;-58
2024/03/20 16:01:05;;;;;;;6.60;5.90;;;;;;;11.54;51.81;101763.20;105702;1279;1003080;-58
2024/03/20 16:03:32;;;;;;;5.60;5.10;;;;;;;11.47;52.11;101766.56;105571;1279;1003379;-58
2024/03/20 16:05:59;;;;;;;6.70;6.10;;;;;;;11.39;52.19;101768.89;106392;1279;26089;-58
2024/03/20 16:08:27;;;;;;;6.50;5.80;;;;;;;11.33;52.50;101771.20;105677;1279;1002897;-58
2024/03/20 16:10:55;;;;;;;5.50;5.00;;;;;;;11.26;52.76;101772.47;106069;1282;22927;-58
2024/03/20 16:13:22;;;;;;;5.60;5.10;;;;;;;11.24;53.13;101774.92;106363;1279;22695;-59
2024/03/20 16:15:49;;;;;;;5.80;5.20;;;;;;;11.24;53.19;101776.66;106336;1279;25384;-58
2024/03/20 16:18:19;;;;;;;5.50;5.00;;;;;;;11.19;53.21;101778.61;106222;1281;25567;-58
2024/03/20 16:20:46;;;;;;;5.30;4.80;;;;;;;11.15;53.44;101780.90;105980;1282;25434;-59
2024/03/20 16:23:13;;;;;;;6.40;5.30;;;;;;;11.11;53.73;101778.85;106165;1282;25360;-58
2024/03/20 16:25:40;;;;;;;7.70;6.90;;;;;;;11.07;53.90;101786.35;106424;1285;25422;-59
2024/03/20 16:28:08;;;;;;;5.60;5.00;;;;;;;11.05;54.04;101788.78;106374;1279;25424;-58
2024/03/20 16:30:37;;;;;;;5.00;4.50;;;;;;;11.05;54.12;101789.31;106365;1279;25531;-59